map of SXB home
SXB - Airport
Location
City:  Strasbourg, Alsace, France
Near (Alt.):Enzheim
Name:Strasbourg Airport
ICAO:LFST
IATA:SXB

Details
Type:Airport (Aerodrome, Airfield)
Use:Public/Civil, International (customs port of entry)
Latitude:4832'37"N (48.543611)
Longitude:738'14"E (7.637222)
Elevation:505 ft (154 m)
Variation:2.11E (WMM2015 magnetic declination)
0.13 annual change
Runways:1
Longest:7874 × 148 ft (2400 × 45 m), paved

Time
Time Zone:UTC+1 (DST+2)
Local Time:

Weather
METAR:LFST 121330Z AUTO 21007KT 180V240 9999 SCT039 BKN047 06/M01 Q1013 TEMPO BKN030TCU
TAF:LFST 121100Z 1212/1312 23010KT 9999 FEW025 BKN040 PROB30
TEMPO 1212/1218 -SHRA BKN030TCU PROB30
TEMPO 1300/1305 5000 BR PROB30
TEMPO 1310/1312 18013G23KT PROB30
TEMPO 1311/1312 -RA

Related Locations
Nearby:
Farthest:CHT: 12051 mi / 19394 km
Waitangi [Tuuta], CIT, NZ

Find:

   beyond  
but within

Other Information
Maps:
NOTAMs:
Links:
Sources:

  
flag of France
flag of Alsace
flag of Strasbourg
  

Sectional Chart

Flight Planning
at skyvector.com

Satellite Image

Google Maps Satellite view

 

Copyright © 2004-2017 Karl L. Swartz. All rights reserved.
The Great Circle Mapper name and logo are trademarks of the Great Circle Mapper.
All other trademarks mentioned herein belong to their respective owners.
Please see credits for attibutions and further copyright information.

  Follow gcmap on Facebook Follow gcmap on Twitter Follow gcmap on Google+ GCmap on LinkedIn

hCard Microformat

Geo Microformat